Time;durP1;ratioP1;P1;durP2;ratioP2;P2;SDS_P1;SDS_P2;PMS_P1;PMS_P2;Temp;Humidity;BMP_temperature;BMP_pressure;BME280_temperature;BME280_humidity;BME280_pressure;Samples;Min_cycle;Max_cycle;Signal;HPM_P1;HPM_P2
2022/08/21 00:02:16;;;;;;;22.35;5.75;;;;;;;20.82;78.70;100001.67;1683331;85;21182;-62
2022/08/21 00:04:47;;;;;;;24.25;5.60;;;;;;;20.79;78.79;99995.78;1700492;84;21644;-62
2022/08/21 00:07:19;;;;;;;22.50;5.37;;;;;;;20.77;78.89;100004.96;1703445;83;21125;-62
2022/08/21 00:09:49;;;;;;;27.93;7.45;;;;;;;20.77;78.92;100002.17;1729564;83;21095;-62
2022/08/21 00:12:20;;;;;;;22.52;5.45;;;;;;;20.79;78.95;100001.34;1729764;83;21743;-62
2022/08/21 00:14:51;;;;;;;18.65;5.60;;;;;;;20.77;79.07;100000.23;1717599;83;21131;-62
2022/08/21 00:17:23;;;;;;;21.57;5.95;;;;;;;20.75;79.17;99999.67;1707643;83;21668;-62
2022/08/21 00:19:53;;;;;;;20.45;6.45;;;;;;;20.72;79.36;99993.81;1700539;84;21156;-62
2022/08/21 00:22:24;;;;;;;24.80;6.05;;;;;;;20.70;79.41;99991.30;1693641;83;21542;-62
2022/08/21 00:24:53;;;;;;;18.50;5.60;;;;;;;20.71;79.51;99989.36;1729774;83;21127;-62
2022/08/21 00:27:23;;;;;;;18.77;6.03;;;;;;;20.72;79.49;99991.03;1729617;83;21155;-61
2022/08/21 00:29:53;;;;;;;21.45;6.33;;;;;;;20.73;79.58;99992.14;1729775;82;22594;-61
2022/08/21 00:32:24;;;;;;;21.23;6.15;;;;;;;20.73;79.57;99992.70;1729834;83;21231;-62
2022/08/21 00:34:54;;;;;;;24.60;6.30;;;;;;;20.73;79.52;100001.05;1729282;83;21158;-62
2022/08/21 00:37:24;;;;;;;26.15;6.40;;;;;;;20.70;79.49;100002.44;1729688;83;21107;-61
2022/08/21 00:39:54;;;;;;;24.37;5.40;;;;;;;20.66;79.57;100001.31;1729536;83;21603;-62
2022/08/21 00:42:23;;;;;;;24.35;5.80;;;;;;;20.64;79.64;100004.09;1714253;83;21145;-63
2022/08/21 00:44:53;;;;;;;21.82;5.20;;;;;;;20.62;79.73;100009.93;1700516;84;21161;-61
2022/08/21 00:47:22;;;;;;;20.68;5.35;;;;;;;20.63;79.75;100006.03;1700489;84;21168;-61
2022/08/21 00:49:52;;;;;;;20.82;5.05;;;;;;;20.64;79.71;100013.83;1704699;83;21206;-62
2022/08/21 00:52:25;;;;;;;18.50;5.37;;;;;;;20.66;79.54;100014.40;1723413;83;21122;-61
2022/08/21 00:54:55;;;;;;;20.60;5.00;;;;;;;20.64;79.38;100005.48;1717508;83;21119;-61
2022/08/21 00:57:38;;;;;;;18.92;5.03;;;;;;;20.59;79.34;100018.83;1721829;83;21111;-61
2022/08/21 01:00:11;;;;;;;24.63;5.15;;;;;;;20.55;79.39;100013.53;1729653;83;21604;-63
2022/08/21 01:02:41;;;;;;;20.10;5.33;;;;;;;20.50;79.53;100013.51;1697244;83;21134;-62
2022/08/21 01:05:10;;;;;;;24.85;5.15;;;;;;;20.45;79.56;100014.33;1729526;82;21163;-62
2022/08/21 01:07:41;;;;;;;22.58;4.90;;;;;;;20.42;79.64;100016.27;1729793;83;21155;-62
2022/08/21 01:10:12;;;;;;;22.05;5.65;;;;;;;20.39;79.73;100017.33;1729610;82;21114;-63
2022/08/21 01:12:44;;;;;;;21.95;5.20;;;;;;;20.39;79.90;100014.55;1718041;83;21107;-62
2022/08/21 01:15:15;;;;;;;21.50;4.95;;;;;;;20.38;79.95;100012.88;1703384;83;21151;-62
2022/08/21 01:17:45;;;;;;;28.52;5.65;;;;;;;20.38;79.99;100009.53;1703560;83;21602;-62
2022/08/21 01:20:16;;;;;;;21.02;6.28;;;;;;;20.38;80.07;100015.66;1721623;83;21151;-62
2022/08/21 01:22:45;;;;;;;19.57;5.28;;;;;;;20.40;79.99;100011.52;1722647;83;21576;-62
2022/08/21 01:25:19;;;;;;;21.70;5.12;;;;;;;20.42;79.84;100006.52;1726785;83;21123;-62
2022/08/21 01:27:49;;;;;;;23.70;5.70;;;;;;;20.42;79.77;100009.86;1695472;83;21570;-62
2022/08/21 01:30:26;;;;;;;20.05;5.55;;;;;;;20.40;79.83;100014.30;1645180;86;21238;-61
2022/08/21 01:32:56;;;;;;;24.65;5.95;;;;;;;20.38;79.86;100010.92;1680829;85;21586;-61
2022/08/21 01:35:26;;;;;;;15.15;5.33;;;;;;;20.39;79.86;100013.16;1645248;87;21180;-61
2022/08/21 01:37:55;;;;;;;21.33;5.42;;;;;;;20.39;79.79;100006.20;1680605;85;21131;-61
2022/08/21 01:40:24;;;;;;;20.02;5.37;;;;;;;20.38;79.65;100006.75;1645635;87;21126;-62
2022/08/21 01:42:54;;;;;;;24.50;5.85;;;;;;;20.38;79.66;100012.31;1717843;83;21413;-61
2022/08/21 01:45:25;;;;;;;18.87;5.20;;;;;;;20.37;79.57;100014.81;1727013;83;21683;-62
2022/08/21 01:47:55;;;;;;;21.37;5.95;;;;;;;20.32;79.63;100009.23;1726890;83;21111;-62
2022/08/21 01:50:25;;;;;;;23.30;6.15;;;;;;;20.28;79.77;100008.09;1722765;83;21564;-61
2022/08/21 01:52:55;;;;;;;25.75;6.10;;;;;;;20.26;79.87;100011.70;1645201;86;21207;-62
2022/08/21 01:55:25;;;;;;;24.32;6.20;;;;;;;20.26;79.91;100015.88;1680546;85;21187;-60
2022/08/21 01:57:55;;;;;;;21.68;5.40;;;;;;;20.28;79.85;100007.27;1645186;87;21216;-62
2022/08/21 02:00:25;;;;;;;22.90;6.62;;;;;;;20.26;79.80;100011.16;1673133;83;21159;-61
2022/08/21 02:02:55;;;;;;;24.63;6.62;;;;;;;20.28;79.68;100007.27;1726807;83;21163;-60
2022/08/21 02:05:25;;;;;;;21.60;5.58;;;;;;;20.26;79.69;99996.41;1726718;83;21119;-62
2022/08/21 02:07:55;;;;;;;21.55;5.35;;;;;;;20.29;79.65;99993.63;1726464;83;21591;-63
2022/08/21 02:10:28;;;;;;;22.48;5.37;;;;;;;20.30;79.44;99996.14;1726837;83;21163;-62
2022/08/21 02:12:59;;;;;;;22.93;5.62;;;;;;;20.30;79.46;99992.52;1727237;83;21609;-62
2022/08/21 02:15:31;;;;;;;22.40;5.00;;;;;;;20.30;79.34;99997.53;1729718;83;21167;-62
2022/08/21 02:18:01;;;;;;;21.52;5.62;;;;;;;20.32;79.25;99987.52;1729625;83;21139;-62
2022/08/21 02:20:34;;;;;;;24.12;5.60;;;;;;;20.34;79.14;99990.31;1727843;83;21603;-62
2022/08/21 02:23:04;;;;;;;18.32;4.75;;;;;;;20.36;78.89;99992.83;1707473;83;21126;-61
2022/08/21 02:25:35;;;;;;;27.73;4.75;;;;;;;20.38;78.66;99996.17;1645262;86;21140;-61
2022/08/21 02:28:08;;;;;;;19.73;5.92;;;;;;;20.39;78.46;99993.16;1681541;83;21158;-61
2022/08/21 02:30:42;;;;;;;16.93;4.40;;;;;;;20.37;78.47;99988.38;1726942;83;21199;-62
2022/08/21 02:33:12;;;;;;;23.52;5.22;;;;;;;20.32;78.56;99989.75;1726999;83;21123;-62
2022/08/21 02:35:42;;;;;;;21.52;4.83;;;;;;;20.33;78.49;99990.03;1727759;83;21124;-61
2022/08/21 02:38:15;;;;;;;19.62;5.20;;;;;;;20.31;78.42;99988.08;1729678;83;21159;-61
2022/08/21 02:40:46;;;;;;;18.00;4.92;;;;;;;20.33;78.48;99985.86;1726867;83;21540;-60
2022/08/21 02:43:18;;;;;;;19.92;5.30;;;;;;;20.36;78.40;99982.53;1725139;83;21119;-62
2022/08/21 02:45:48;;;;;;;20.43;5.05;;;;;;;20.37;78.28;99978.64;1726902;83;21532;-63
2022/08/21 02:48:21;;;;;;;16.73;4.67;;;;;;;20.36;78.29;99981.70;1726743;83;21138;-61
2022/08/21 02:50:58;;;;;;;17.70;4.97;;;;;;;20.37;78.11;99990.33;1726459;83;21127;-62
2022/08/21 02:53:27;;;;;;;16.30;4.37;;;;;;;20.34;78.04;99984.75;1727120;83;21174;-62
2022/08/21 02:55:58;;;;;;;17.73;4.37;;;;;;;20.34;77.92;99990.31;1726849;83;21179;-61
2022/08/21 02:58:32;;;;;;;24.07;5.42;;;;;;;20.31;78.02;100000.59;1726487;83;21123;-61
2022/08/21 03:01:02;;;;;;;24.98;4.97;;;;;;;20.29;78.06;100004.20;1726842;83;21684;-61
2022/08/21 03:03:34;;;;;;;22.32;5.17;;;;;;;20.28;78.01;99998.36;1726799;83;21148;-61
2022/08/21 03:06:05;;;;;;;26.45;5.15;;;;;;;20.27;77.98;100005.03;1726713;83;21613;-61
2022/08/21 03:08:37;;;;;;;21.62;5.47;;;;;;;20.24;77.87;100002.23;1727036;83;21174;-61
2022/08/21 03:11:06;;;;;;;17.12;5.20;;;;;;;20.23;77.86;100001.12;1726840;83;21226;-61
2022/08/21 03:13:38;;;;;;;18.10;5.42;;;;;;;20.22;77.94;99999.45;1723706;83;21146;-61
2022/08/21 03:16:11;;;;;;;18.32;6.05;;;;;;;20.22;77.91;99999.45;1726958;83;21135;-61
2022/08/21 03:18:40;;;;;;;23.25;6.60;;;;;;;20.20;77.98;100000.27;1726299;83;21143;-61
2022/08/21 03:21:10;;;;;;;21.37;5.80;;;;;;;20.24;77.89;100000.01;1652765;85;21142;-61
2022/08/21 03:23:41;;;;;;;29.27;6.28;;;;;;;20.25;77.66;99996.12;1648605;87;21107;-61
2022/08/21 03:26:11;;;;;;;22.40;5.65;;;;;;;20.25;77.51;100007.25;1655606;86;21575;-62
2022/08/21 03:28:41;;;;;;;23.45;5.62;;;;;;;20.22;77.42;100011.41;1683646;85;21178;-62
2022/08/21 03:31:11;;;;;;;21.85;5.37;;;;;;;20.22;77.47;100008.62;1684386;85;21179;-62
2022/08/21 03:33:42;;;;;;;20.92;6.05;;;;;;;20.21;77.43;100013.91;1704615;83;21547;-61
2022/08/21 03:36:12;;;;;;;27.67;5.92;;;;;;;20.19;77.43;100016.68;1734128;83;21135;-61
2022/08/21 03:38:41;;;;;;;22.32;5.80;;;;;;;20.19;77.19;100013.90;1734094;82;21622;-61
2022/08/21 03:41:12;;;;;;;24.45;5.87;;;;;;;20.20;77.03;100025.31;1731033;82;21392;-62
2022/08/21 03:43:44;;;;;;;25.15;6.00;;;;;;;20.18;76.87;100020.57;1692508;85;21640;-61
2022/08/21 03:46:14;;;;;;;25.08;6.62;;;;;;;20.16;76.87;100020.00;1656596;86;21246;-62
2022/08/21 03:48:44;;;;;;;21.57;6.05;;;;;;;20.13;76.81;100013.55;1648801;87;21174;-61
2022/08/21 03:51:15;;;;;;;22.60;5.65;;;;;;;20.11;76.71;100015.77;1655375;87;21194;-62
2022/08/21 03:53:44;;;;;;;19.45;5.28;;;;;;;20.09;76.73;100017.98;1684939;85;21196;-62
2022/08/21 03:56:15;;;;;;;19.57;5.65;;;;;;;20.04;76.79;100019.34;1689587;85;21190;-62
2022/08/21 03:58:45;;;;;;;26.70;5.70;;;;;;;20.07;76.82;100018.81;1676735;85;21608;-62
2022/08/21 04:01:15;;;;;;;31.45;6.12;;;;;;;20.08;76.74;100019.93;1628601;88;21607;-61
2022/08/21 04:03:44;;;;;;;21.93;6.15;;;;;;;20.08;76.23;100024.10;1656588;85;21205;-61
2022/08/21 04:06:13;;;;;;;23.67;4.92;;;;;;;20.07;76.16;100025.77;1648745;87;21628;-61
2022/08/21 04:08:43;;;;;;;17.20;5.42;;;;;;;20.07;76.03;100025.77;1628424;87;21601;-61
2022/08/21 04:11:14;;;;;;;20.90;5.37;;;;;;;20.07;75.94;100023.81;1658247;86;21646;-61
2022/08/21 04:13:44;;;;;;;24.80;5.53;;;;;;;20.04;75.53;100025.75;1668257;86;21217;-62
2022/08/21 04:16:14;;;;;;;21.33;5.20;;;;;;;20.00;75.66;100030.17;1668274;86;21186;-61
2022/08/21 04:18:43;;;;;;;18.60;4.65;;;;;;;20.00;75.45;100028.78;1667129;85;21210;-62
2022/08/21 04:21:12;;;;;;;14.18;4.10;;;;;;;20.01;75.33;100032.40;1677866;85;21190;-62
2022/08/21 04:23:42;;;;;;;19.60;4.75;;;;;;;20.04;75.12;100029.08;1632898;86;21152;-61
2022/08/21 04:26:12;;;;;;;23.22;4.90;;;;;;;20.04;75.02;100029.92;1644722;87;21140;-61
2022/08/21 04:28:41;;;;;;;20.17;4.47;;;;;;;20.07;74.76;100043.84;1679998;85;21147;-62
2022/08/21 04:31:13;;;;;;;18.52;4.37;;;;;;;20.08;74.42;100038.56;1679941;84;21597;-62
2022/08/21 04:33:43;;;;;;;25.60;4.60;;;;;;;20.10;74.10;100039.12;1679874;85;21179;-60
2022/08/21 04:36:13;;;;;;;25.80;4.92;;;;;;;20.12;73.88;100035.52;1684913;83;21134;-61
2022/08/21 04:38:42;;;;;;;21.07;4.33;;;;;;;20.13;73.78;100038.59;1710682;83;21115;-62
2022/08/21 04:41:13;;;;;;;18.90;3.77;;;;;;;20.14;73.54;100033.31;1726324;83;21174;-60
2022/08/21 04:43:44;;;;;;;23.00;5.67;;;;;;;20.18;73.30;100041.44;1729361;83;21167;-62
2022/08/21 04:46:13;;;;;;;25.08;4.75;;;;;;;20.19;72.97;100037.55;1729317;83;21127;-61
2022/08/21 04:48:42;;;;;;;20.45;4.50;;;;;;;20.22;72.89;100043.95;1729305;83;21099;-60
2022/08/21 04:51:24;;;;;;;20.60;4.65;;;;;;;20.25;72.44;100047.59;1730396;83;21170;-62
2022/08/21 04:54:14;;;;;;;21.17;3.87;;;;;;;20.26;72.16;100042.31;1734581;83;21127;-62
2022/08/21 04:56:56;;;;;;;23.12;4.00;;;;;;;20.28;71.97;100034.53;1734679;81;21144;-61
2022/08/21 04:59:32;;;;;;;16.80;4.15;;;;;;;20.30;72.03;100041.22;1689296;83;21196;-61
2022/08/21 05:02:03;;;;;;;22.35;4.75;;;;;;;20.35;71.34;100035.67;1729681;82;21234;-61
2022/08/21 05:04:34;;;;;;;16.45;4.22;;;;;;;20.35;71.10;100030.11;1679967;84;21131;-61
2022/08/21 05:07:07;;;;;;;21.90;4.45;;;;;;;20.40;70.77;100034.34;1729536;83;21175;-61
2022/08/21 05:09:37;;;;;;;21.07;4.30;;;;;;;20.43;70.41;100037.42;1729470;83;21136;-60
2022/08/21 05:12:07;;;;;;;21.97;4.55;;;;;;;20.49;70.12;100036.88;1713092;83;22227;-62
2022/08/21 05:14:37;;;;;;;25.20;4.47;;;;;;;20.57;69.53;100044.16;1729665;82;21155;-62
2022/08/21 05:17:06;;;;;;;18.02;4.20;;;;;;;20.63;68.99;100033.87;1729262;83;21131;-64
2022/08/21 05:19:35;;;;;;;18.17;3.92;;;;;;;20.71;68.68;100045.88;1729376;83;21135;-63
2022/08/21 05:22:04;;;;;;;23.55;4.60;;;;;;;20.76;68.18;100041.72;1727939;83;21131;-61
2022/08/21 05:24:35;;;;;;;22.42;4.42;;;;;;;20.84;68.09;100049.56;1724340;83;21132;-63
2022/08/21 05:27:06;;;;;;;24.15;4.35;;;;;;;20.89;67.73;100048.75;1645253;87;21207;-63
2022/08/21 05:29:36;;;;;;;29.77;5.15;;;;;;;20.94;67.04;100045.14;1680666;85;21106;-64
2022/08/21 05:32:11;;;;;;;22.73;4.30;;;;;;;20.94;66.85;100045.14;1645262;87;21164;-62
2022/08/21 05:34:40;;;;;;;20.65;4.35;;;;;;;20.95;67.04;100047.65;1681472;83;21130;-63
2022/08/21 05:37:12;;;;;;;24.00;4.45;;;;;;;20.96;66.83;100041.52;1645248;86;21183;-63
2022/08/21 05:39:41;;;;;;;21.20;4.72;;;;;;;20.97;66.80;100038.46;1681555;83;21188;-63
2022/08/21 05:42:13;;;;;;;22.62;4.85;;;;;;;21.03;66.68;100029.56;1645009;86;21214;-63
2022/08/21 05:44:42;;;;;;;24.32;4.20;;;;;;;21.04;66.53;100032.06;1680649;85;21550;-62
2022/08/21 05:47:15;;;;;;;20.30;4.50;;;;;;;21.05;66.18;100030.95;1645295;87;21593;-62
2022/08/21 05:49:45;;;;;;;23.40;4.67;;;;;;;21.06;66.11;100034.58;1705087;83;21210;-62
2022/08/21 05:52:20;;;;;;;19.87;4.58;;;;;;;21.03;66.04;100035.12;1726823;83;21202;-61
2022/08/21 05:54:50;;;;;;;28.12;7.90;;;;;;;21.03;66.35;100038.75;1687915;83;21558;-62
2022/08/21 05:57:20;;;;;;;23.92;5.12;;;;;;;21.04;66.07;100034.85;1645456;87;21246;-62
2022/08/21 05:59:50;;;;;;;21.73;4.45;;;;;;;21.03;66.18;100029.00;1680851;85;21166;-61
2022/08/21 06:02:20;;;;;;;23.70;5.00;;;;;;;21.04;66.20;100043.77;1645555;87;21203;-63
2022/08/21 06:04:49;;;;;;;24.02;4.70;;;;;;;21.05;66.18;100040.70;1695171;83;21226;-62
2022/08/21 06:07:19;;;;;;;16.50;4.40;;;;;;;21.10;66.16;100040.72;1726858;83;21159;-61
2022/08/21 06:09:49;;;;;;;22.65;4.72;;;;;;;21.16;65.70;100040.17;1726728;83;21135;-62
2022/08/21 06:12:19;;;;;;;23.05;5.37;;;;;;;21.17;65.58;100033.48;1726847;83;21147;-61
2022/08/21 06:14:51;;;;;;;21.52;4.08;;;;;;;21.19;65.76;100047.41;1699759;83;21150;-62
2022/08/21 06:17:20;;;;;;;23.10;4.30;;;;;;;21.24;65.76;100042.99;1680473;85;21138;-62
2022/08/21 06:19:54;;;;;;;25.88;4.37;;;;;;;21.26;65.62;100057.48;1645164;86;21591;-62
2022/08/21 06:22:24;;;;;;;19.42;5.03;;;;;;;21.26;65.20;100032.41;1679675;85;21159;-62
2022/08/21 06:24:54;;;;;;;19.40;5.03;;;;;;;21.27;65.17;100035.47;1641441;86;21207;-63
2022/08/21 06:27:24;;;;;;;25.05;4.72;;;;;;;21.31;65.32;100039.38;1681771;83;21110;-63
2022/08/21 06:29:57;;;;;;;20.97;4.65;;;;;;;21.36;65.34;100036.59;1641419;86;21231;-62
2022/08/21 06:32:26;;;;;;;18.80;5.08;;;;;;;21.42;65.13;100032.14;1680039;83;21203;-63
2022/08/21 06:34:56;;;;;;;19.77;4.40;;;;;;;21.48;64.92;100029.66;1641453;86;21600;-63
2022/08/21 06:37:27;;;;;;;22.67;4.70;;;;;;;21.51;64.90;100022.13;1678963;85;21222;-62
2022/08/21 06:39:56;;;;;;;22.42;7.15;;;;;;;21.57;64.73;100020.19;1641480;86;21155;-62
2022/08/21 06:42:27;;;;;;;18.65;4.60;;;;;;;21.64;64.71;100021.30;1719744;83;21103;-62
2022/08/21 06:44:58;;;;;;;21.65;4.83;;;;;;;21.73;64.69;100020.45;1668631;85;21140;-62
2022/08/21 06:47:28;;;;;;;25.77;4.78;;;;;;;21.89;64.27;100019.03;1720023;83;21198;-61
2022/08/21 06:49:57;;;;;;;17.52;4.42;;;;;;;22.07;63.78;100020.69;1668513;85;21140;-62
2022/08/21 06:52:27;;;;;;;23.67;4.42;;;;;;;22.39;63.12;100021.73;1719599;83;21152;-62
2022/08/21 06:54:57;;;;;;;22.73;4.30;;;;;;;22.81;62.61;100023.27;1719779;83;21132;-63
2022/08/21 06:57:27;;;;;;;23.38;5.10;;;;;;;23.21;60.84;100019.38;1719894;83;21645;-61
2022/08/21 06:59:58;;;;;;;26.73;4.97;;;;;;;23.56;59.62;100025.32;1691048;85;21183;-64
2022/08/21 07:02:27;;;;;;;19.32;5.20;;;;;;;23.84;58.39;100027.86;1641604;87;21140;-61
2022/08/21 07:04:56;;;;;;;21.00;5.67;;;;;;;23.95;57.64;100027.19;1691309;85;21219;-62
2022/08/21 07:07:26;;;;;;;21.35;4.80;;;;;;;23.98;57.37;100022.40;1641486;87;21146;-62
2022/08/21 07:09:57;;;;;;;23.47;4.65;;;;;;;23.96;57.43;100022.70;1691121;85;21332;-61
2022/08/21 07:12:27;;;;;;;23.05;4.58;;;;;;;23.95;57.44;100025.79;1651499;86;21123;-62
2022/08/21 07:14:58;;;;;;;20.17;5.35;;;;;;;24.04;57.46;100018.42;1696849;84;21206;-62
2022/08/21 07:17:28;;;;;;;18.90;4.55;;;;;;;24.27;56.87;100016.26;1707849;84;21601;-62
2022/08/21 07:19:58;;;;;;;23.45;4.72;;;;;;;24.53;56.36;100020.98;1707881;84;21162;-63
2022/08/21 07:22:27;;;;;;;20.27;4.70;;;;;;;24.80;55.13;100017.57;1688912;83;21114;-64
2022/08/21 07:24:57;;;;;;;25.85;4.90;;;;;;;25.02;54.44;100013.37;1641563;87;21200;-63
2022/08/21 07:27:28;;;;;;;18.25;4.80;;;;;;;25.28;53.92;100009.03;1678940;85;21118;-62
2022/08/21 07:29:58;;;;;;;23.38;5.45;;;;;;;25.51;53.56;100005.31;1641454;87;21199;-62
2022/08/21 07:32:27;;;;;;;20.12;5.00;;;;;;;25.74;53.01;100005.52;1697801;83;21586;-62
2022/08/21 07:34:56;;;;;;;23.62;5.05;;;;;;;25.92;51.98;100007.42;1719831;83;21116;-62
2022/08/21 07:37:26;;;;;;;24.95;5.58;;;;;;;26.06;52.17;100004.67;1719811;83;21119;-62
2022/08/21 07:39:57;;;;;;;25.20;4.67;;;;;;;26.26;51.90;100002.03;1719876;83;21131;-62
2022/08/21 07:42:27;;;;;;;21.20;5.20;;;;;;;26.54;50.99;100005.12;1719799;83;21179;-63
2022/08/21 07:44:57;;;;;;;26.35;5.40;;;;;;;26.77;50.01;100001.27;1709788;83;21617;-63
2022/08/21 07:47:27;;;;;;;17.90;4.55;;;;;;;26.90;49.77;100000.16;1719723;83;21185;-62
2022/08/21 07:49:57;;;;;;;22.60;4.87;;;;;;;27.10;49.61;100002.52;1718468;83;21151;-63
2022/08/21 07:52:28;;;;;;;20.65;5.10;;;;;;;27.37;49.47;100002.45;1719610;83;21235;-63
2022/08/21 07:55:00;;;;;;;26.12;6.15;;;;;;;27.62;48.49;99996.78;1720026;83;21611;-63
2022/08/21 07:57:31;;;;;;;17.45;4.90;;;;;;;27.81;47.88;99993.75;1719568;83;21171;-63
2022/08/21 08:00:02;;;;;;;21.80;4.85;;;;;;;27.98;47.36;100007.13;1719826;83;21160;-64
2022/08/21 08:02:36;;;;;;;22.22;5.37;;;;;;;28.21;46.90;99996.05;1719428;83;21185;-63
2022/08/21 08:05:08;;;;;;;19.12;5.15;;;;;;;28.42;46.03;99992.09;1719752;83;21630;-63
2022/08/21 08:07:37;;;;;;;21.17;5.00;;;;;;;28.55;45.52;99995.36;1719380;83;21171;-63
2022/08/21 08:10:08;;;;;;;29.07;5.83;;;;;;;28.67;45.70;99988.55;1719650;83;21604;-62
2022/08/21 08:12:39;;;;;;;26.50;5.42;;;;;;;28.72;44.86;99984.16;1719597;83;21202;-62
2022/08/21 08:15:12;;;;;;;29.07;5.53;;;;;;;28.77;45.08;99985.16;1684547;83;21624;-63
2022/08/21 08:17:42;;;;;;;24.70;5.35;;;;;;;28.89;44.24;99979.16;1641377;87;21219;-62
2022/08/21 08:20:13;;;;;;;28.20;5.00;;;;;;;28.92;43.51;99986.13;1696393;83;21120;-64
2022/08/21 08:22:42;;;;;;;50.20;7.12;;;;;;;28.85;43.76;99978.16;1668295;85;21649;-60
2022/08/21 08:25:13;;;;;;;23.27;5.33;;;;;;;28.99;44.01;99982.23;1675444;84;21633;-61
2022/08/21 08:27:45;;;;;;;27.32;4.92;;;;;;;29.12;43.30;99979.83;1719142;83;21563;-60
2022/08/21 08:30:15;;;;;;;20.65;4.80;;;;;;;29.15;43.29;99976.34;1726218;83;21177;-60
2022/08/21 08:32:45;;;;;;;34.27;5.25;;;;;;;29.29;42.75;99973.38;1726585;83;21119;-58
2022/08/21 08:35:14;;;;;;;23.62;4.97;;;;;;;29.24;42.78;99970.70;1713436;83;21133;-60
2022/08/21 08:37:45;;;;;;;19.00;5.08;;;;;;;29.15;42.76;99965.06;1717193;83;21104;-59
2022/08/21 08:40:35;;;;;;;29.45;5.15;;;;;;;29.19;42.95;99968.05;1716975;83;21168;-56
2022/08/21 08:43:06;;;;;;;22.20;5.10;;;;;;;29.25;42.37;99959.66;1716535;83;21148;-58
2022/08/21 08:45:38;;;;;;;21.42;4.55;;;;;;;29.17;42.54;99967.55;1722274;83;21143;-59
2022/08/21 08:48:12;;;;;;;23.65;5.03;;;;;;;29.16;42.90;99965.31;1728405;83;21166;-58
2022/08/21 08:50:56;;;;;;;25.95;5.03;;;;;;;29.24;42.62;99968.70;1710050;83;21181;-59
2022/08/21 08:53:35;;;;;;;21.90;4.80;;;;;;;29.17;42.88;99969.79;1644734;86;21163;-59
2022/08/21 08:56:05;;;;;;;29.02;4.55;;;;;;;29.18;42.49;99967.80;1680350;83;21189;-58
2022/08/21 08:58:39;;;;;;;40.33;5.35;;;;;;;29.09;42.87;99972.61;1647885;87;21695;-61
2022/08/21 09:01:16;;;;;;;23.10;4.87;;;;;;;29.04;43.16;99970.20;1714855;82;21123;-62
2022/08/21 09:03:49;;;;;;;28.65;4.62;;;;;;;29.00;42.66;99969.20;1633446;87;21217;-60
2022/08/21 09:06:35;;;;;;;28.02;5.15;;;;;;;28.94;42.72;99969.70;1727354;83;21163;-62
2022/08/21 09:09:22;;;;;;;33.60;4.80;;;;;;;28.94;42.85;99978.16;1704196;83;22131;-61
2022/08/21 09:12:21;;;;;;;25.45;4.65;;;;;;;28.97;42.58;99977.50;1726803;83;21127;-61
2022/08/21 09:15:21;;;;;;;20.30;4.17;;;;;;;28.91;42.77;99966.96;1726523;82;21163;-61
2022/08/21 09:18:11;;;;;;;31.25;5.42;;;;;;;28.77;43.05;99966.83;1691318;84;21179;-62
2022/08/21 09:21:02;;;;;;;26.30;4.75;;;;;;;28.76;42.98;99970.81;1677503;85;21556;-60
2022/08/21 09:23:42;;;;;;;23.92;4.37;;;;;;;28.70;43.11;99974.38;1713031;82;21135;-61
2022/08/21 09:26:17;;;;;;;24.65;4.15;;;;;;;28.62;42.87;99976.02;1709609;82;21598;-62
2022/08/21 09:28:48;;;;;;;26.50;4.28;;;;;;;28.54;42.35;99973.14;1683501;83;21127;-61
2022/08/21 09:31:32;;;;;;;24.65;4.08;;;;;;;28.41;42.62;99970.13;1627028;87;21202;-63
2022/08/21 09:34:04;;;;;;;27.48;4.10;;;;;;;28.37;42.22;99967.71;1680762;83;21134;-62
2022/08/21 09:36:45;;;;;;;22.80;3.80;;;;;;;28.28;41.42;99970.25;1719680;83;21568;-62
2022/08/21 09:39:29;;;;;;;26.55;4.00;;;;;;;28.21;41.14;99967.04;1717615;83;21124;-60
2022/08/21 09:42:04;;;;;;;22.25;4.10;;;;;;;28.14;41.54;99961.88;1718914;83;21207;-61
2022/08/21 09:44:40;;;;;;;23.47;4.08;;;;;;;28.10;41.81;99960.87;1641260;87;21190;-61
2022/08/21 09:47:11;;;;;;;;;;;;;;;28.09;41.55;99959.20;1722236;83;21179;-61
2022/08/21 09:49:42;;;;;;;21.33;4.08;;;;;;;28.03;41.59;99957.11;1719755;83;20198;-62
2022/08/21 09:52:18;;;;;;;24.82;4.30;;;;;;;27.93;41.79;99953.72;1698740;83;21128;-61
2022/08/21 09:54:52;;;;;;;29.02;4.17;;;;;;;27.91;42.22;99947.00;1689779;85;21212;-62
2022/08/21 09:57:39;;;;;;;19.32;3.77;;;;;;;27.93;42.35;99950.33;1689757;85;21140;-61
2022/08/21 10:00:26;;;;;;;25.68;4.47;;;;;;;27.99;41.54;99950.47;1667846;85;21132;-63
2022/08/21 10:02:57;;;;;;;27.22;5.12;;;;;;;28.00;42.23;99945.66;1706843;83;21112;-64
2022/08/21 10:05:28;;;;;;;22.02;6.00;;;;;;;27.89;42.08;99957.77;1703416;83;21160;-62
2022/08/21 10:07:57;;;;;;;22.80;6.28;;;;;;;27.87;41.42;99961.48;1719222;83;21106;-63
2022/08/21 10:10:30;;;;;;;26.15;4.00;;;;;;;27.78;41.82;99960.03;1718845;83;21159;-61
2022/08/21 10:13:14;;;;;;;22.22;4.20;;;;;;;27.71;41.88;99944.17;1668165;85;21202;-61
2022/08/21 10:16:33;;;;;;;23.70;3.87;;;;;;;27.60;42.35;99942.75;1719761;83;21132;-61
2022/08/21 10:19:14;;;;;;;16.67;4.22;;;;;;;27.61;41.87;99943.04;1719766;83;21155;-60
2022/08/21 10:21:57;;;;;;;21.05;4.78;;;;;;;27.69;41.57;99945.65;1719506;83;21164;-62
2022/08/21 10:24:31;;;;;;;21.45;3.25;;;;;;;27.76;42.22;99952.48;1721874;83;21179;-62
2022/08/21 10:27:18;;;;;;;23.42;4.67;;;;;;;27.85;41.57;99937.61;1726618;82;21183;-61
2022/08/21 10:30:15;;;;;;;18.37;3.47;;;;;;;27.88;41.85;99937.80;1717909;82;21206;-62
2022/08/21 10:33:05;;;;;;;20.30;3.55;;;;;;;27.90;41.29;99941.12;1726726;83;21182;-62
2022/08/21 10:35:52;;;;;;;24.45;3.95;;;;;;;27.83;41.27;99937.94;1711588;83;21147;-62
2022/08/21 10:38:42;;;;;;;28.70;9.20;;;;;;;27.81;41.56;99938.84;1713802;83;21092;-61
2022/08/21 10:41:56;;;;;;;19.92;4.78;;;;;;;27.77;41.52;99925.98;1699772;83;21175;-61
2022/08/21 10:45:11;;;;;;;18.10;3.87;;;;;;;27.77;41.37;99930.79;1681856;84;21195;-61
2022/08/21 10:47:48;;;;;;;22.30;3.87;;;;;;;27.77;41.46;99925.16;1716865;83;21186;-61
2022/08/21 10:50:25;;;;;;;20.35;3.27;;;;;;;27.81;41.58;99919.13;1718722;83;21201;-62
2022/08/21 10:53:37;;;;;;;19.75;3.90;;;;;;;27.87;40.61;99916.42;1677380;85;21135;-62
2022/08/21 10:56:22;;;;;;;21.73;4.55;;;;;;;27.92;40.80;99929.53;1693905;84;21147;-62
2022/08/21 10:59:27;;;;;;;22.30;4.00;;;;;;;27.92;40.76;99923.32;1649970;86;21242;-60
2022/08/21 11:02:35;;;;;;;17.67;3.22;;;;;;;27.97;40.59;99919.56;1716807;83;21182;-61
2022/08/21 11:05:27;;;;;;;22.00;3.72;;;;;;;27.97;40.63;99919.56;1701426;83;21198;-60
2022/08/21 11:08:14;;;;;;;26.90;3.83;;;;;;;27.95;40.53;99919.85;1705897;84;21126;-60
2022/08/21 11:11:00;;;;;;;21.82;3.60;;;;;;;27.89;40.58;99918.92;1706196;83;21154;-60
2022/08/21 11:13:49;;;;;;;;;;;;;;;27.81;40.84;99914.91;1687317;83;21182;-59
2022/08/21 11:16:42;;;;;;;26.90;3.77;;;;;;;27.77;41.02;99918.12;1680235;85;20216;-57
2022/08/21 11:19:37;;;;;;;20.85;4.03;;;;;;;27.79;41.70;99911.59;1679973;85;21103;-60
2022/08/21 11:22:17;;;;;;;19.20;3.50;;;;;;;27.87;40.86;99912.78;1723971;83;21148;-62
2022/08/21 11:25:12;;;;;;;35.00;15.45;;;;;;;27.84;40.98;99911.44;1729043;82;21170;-61
2022/08/21 11:27:56;;;;;;;23.42;6.25;;;;;;;27.82;41.23;99912.92;1635475;87;21198;-60
2022/08/21 11:30:27;;;;;;;23.05;4.33;;;;;;;27.82;41.22;99906.72;1703777;84;21213;-62
2022/08/21 11:33:25;;;;;;;21.15;3.67;;;;;;;27.82;41.02;99910.94;1704305;84;21201;-61
2022/08/21 11:36:16;;;;;;;18.02;3.40;;;;;;;27.81;40.97;99905.05;1707501;83;21194;-62
2022/08/21 11:38:53;;;;;;;21.30;3.60;;;;;;;27.83;40.82;99900.50;1703174;82;21120;-62
2022/08/21 11:41:39;;;;;;;16.32;3.33;;;;;;;27.86;40.96;99900.69;1706544;83;21091;-61
2022/08/21 11:44:36;;;;;;;22.17;4.58;;;;;;;27.84;41.05;99900.18;1729194;83;21167;-62
2022/08/21 11:47:45;;;;;;;32.38;4.35;;;;;;;27.85;41.06;99890.58;1729166;83;21159;-60
2022/08/21 11:50:19;;;;;;;22.00;4.28;;;;;;;27.87;41.12;99892.49;1729057;83;21158;-61
2022/08/21 11:53:02;;;;;;;26.40;3.50;;;;;;;27.88;41.09;99898.95;1728983;83;21142;-61
2022/08/21 11:55:45;;;;;;;23.05;3.98;;;;;;;27.81;41.00;99899.42;1729188;83;21108;-61